This is the latest recevied weather packets stored in our database for station/object E27IHO-13. If no packets are shown the sender has not sent any weather packets the latest 10 day(s).
| Time | Temp. | Humidity | Pressure | Rain* | Wind** | Luminosity | Snow |
|---|---|---|---|---|---|---|---|
| 1777475357 | 31.11° C | 70% | 1009 hPa | - | - | 0 W/m² | - |
| 1777441781 | 28.89° C | 83% | 1010 hPa | - | - | 0 W/m² | - |
| 1777441459 | 32.78° C | 60% | 1010 hPa | - | - | 0 W/m² | - |
| 1777441136 | 35.56° C | 51% | 1010 hPa | - | - | 0 W/m² | - |
| 1777431547 | 33.89° C | 57% | 1011 hPa | - | - | 0 W/m² | - |
| 1777431225 | 33.89° C | 57% | 1011 hPa | - | - | 0 W/m² | - |
| 1777430903 | 34.44° C | 57% | 1011 hPa | - | - | 0 W/m² | - |
| 1777430581 | 35.56° C | 53% | 1011 hPa | - | - | 0 W/m² | - |
| 1777430259 | 35° C | 54% | 1011 hPa | - | - | 0 W/m² | - |
| 1777429937 | 35.56° C | 53% | 1011 hPa | - | - | 0 W/m² | - |
| 1777429615 | 36.67° C | 50% | 1011 hPa | - | - | 0 W/m² | - |
| 1777429293 | 36.11° C | 51% | 1011 hPa | - | - | 0 W/m² | - |
| 1777428971 | 35.56° C | 53% | 1011 hPa | - | - | 0 W/m² | - |
| 1777428649 | 35.56° C | 52% | 1011 hPa | - | - | 0 W/m² | - |
| 1777428327 | 36.11° C | 52% | 1011 hPa | - | - | 0 W/m² | - |
| 1777428005 | 35° C | 56% | 1011 hPa | - | - | 0 W/m² | - |
| 1777427683 | 35° C | 56% | 1011 hPa | - | - | 0 W/m² | - |
| 1777427361 | 34.44° C | 59% | 1011 hPa | - | - | 0 W/m² | - |
| 1777427041 | 34.44° C | 59% | 1010 hPa | - | - | 0 W/m² | - |
| 1777426717 | 34.44° C | 59% | 1010 hPa | - | - | 0 W/m² | - |
| 1777426395 | 33.89° C | 60% | 1010 hPa | - | - | 0 W/m² | - |
| 1777426073 | 33.89° C | 60% | 1010 hPa | - | - | 0 W/m² | - |
| 1777425751 | 33.89° C | 62% | 1010 hPa | - | - | 0 W/m² | - |
| 1777425428 | 33.33° C | 62% | 1010 hPa | - | - | 0 W/m² | - |
| 1777425106 | 33.89° C | 61% | 1010 hPa | - | - | 0 W/m² | - |
* Rain since midnight (hover to see other rain measurements)
** Current wind speed in m/s (hover to see current wind gust speed)